sensor_id;sensor_type;location;lat;lon;timestamp;pressure;altitude;pressure_sealevel;temperature;humidity
54038;BME280;39954;48.844;9.726;2023-03-22T00:00:34;95916.94;;;6.01;100.00
54038;BME280;39954;48.844;9.726;2023-03-22T00:01:38;95918.84;;;5.96;100.00
54038;BME280;39954;48.844;9.726;2023-03-22T00:02:46;95919.09;;;5.90;100.00
54038;BME280;39954;48.844;9.726;2023-03-22T00:03:49;95922.69;;;5.86;100.00
54038;BME280;39954;48.844;9.726;2023-03-22T00:04:55;95920.38;;;5.80;100.00
54038;BME280;39954;48.844;9.726;2023-03-22T00:05:59;95918.75;;;5.77;100.00
54038;BME280;39954;48.844;9.726;2023-03-22T00:07:05;95923.06;;;5.77;100.00
54038;BME280;39954;48.844;9.726;2023-03-22T00:08:07;95928.00;;;5.83;100.00
54038;BME280;39954;48.844;9.726;2023-03-22T00:09:15;95930.50;;;5.84;100.00
54038;BME280;39954;48.844;9.726;2023-03-22T00:10:19;95930.50;;;5.84;100.00
54038;BME280;39954;48.844;9.726;2023-03-22T00:11:30;95929.78;;;5.81;100.00
54038;BME280;39954;48.844;9.726;2023-03-22T00:12:32;95931.56;;;5.79;100.00
54038;BME280;39954;48.844;9.726;2023-03-22T00:13:37;95934.38;;;5.74;100.00
54038;BME280;39954;48.844;9.726;2023-03-22T00:14:39;95930.16;;;5.72;100.00
54038;BME280;39954;48.844;9.726;2023-03-22T00:15:45;95933.75;;;5.68;100.00
54038;BME280;39954;48.844;9.726;2023-03-22T00:16:51;95936.53;;;5.63;100.00
54038;BME280;39954;48.844;9.726;2023-03-22T00:17:58;95936.69;;;5.58;100.00
54038;BME280;39954;48.844;9.726;2023-03-22T00:19:00;95935.91;;;5.56;100.00
54038;BME280;39954;48.844;9.726;2023-03-22T00:20:06;95935.13;;;5.54;100.00
54038;BME280;39954;48.844;9.726;2023-03-22T00:21:10;95934.25;;;5.55;100.00
54038;BME280;39954;48.844;9.726;2023-03-22T00:22:16;95934.25;;;5.55;100.00
54038;BME280;39954;48.844;9.726;2023-03-22T00:23:19;95940.34;;;5.53;100.00
54038;BME280;39954;48.844;9.726;2023-03-22T00:24:26;95934.50;;;5.49;100.00
54038;BME280;39954;48.844;9.726;2023-03-22T00:25:29;95927.63;;;5.48;100.00
54038;BME280;39954;48.844;9.726;2023-03-22T00:26:38;95934.72;;;5.43;100.00
54038;BME280;39954;48.844;9.726;2023-03-22T00:27:40;95927.88;;;5.42;100.00
54038;BME280;39954;48.844;9.726;2023-03-22T00:28:45;95924.41;;;5.43;100.00
54038;BME280;39954;48.844;9.726;2023-03-22T00:29:50;95928.72;;;5.43;100.00
54038;BME280;39954;48.844;9.726;2023-03-22T00:30:56;95928.06;;;5.37;100.00
54038;BME280;39954;48.844;9.726;2023-03-22T00:32:01;95932.50;;;5.34;100.00
54038;BME280;39954;48.844;9.726;2023-03-22T00:33:10;95920.75;;;5.27;100.00
54038;BME280;39954;48.844;9.726;2023-03-22T00:34:13;95919.25;;;5.21;100.00
54038;BME280;39954;48.844;9.726;2023-03-22T00:35:21;95919.47;;;5.15;100.00
54038;BME280;39954;48.844;9.726;2023-03-22T00:36:23;95918.75;;;5.11;100.00
54038;BME280;39954;48.844;9.726;2023-03-22T00:37:29;95919.81;;;5.06;100.00
54038;BME280;39954;48.844;9.726;2023-03-22T00:38:35;95919.94;;;5.03;100.00
54038;BME280;39954;48.844;9.726;2023-03-22T00:39:46;95915.75;;;5.00;100.00
54038;BME280;39954;48.844;9.726;2023-03-22T00:40:50;95912.50;;;4.95;100.00
54038;BME280;39954;48.844;9.726;2023-03-22T00:42:04;95912.72;;;4.89;100.00
54038;BME280;39954;48.844;9.726;2023-03-22T00:43:10;95910.38;;;4.83;100.00
54038;BME280;39954;48.844;9.726;2023-03-22T00:44:12;95902.72;;;4.81;100.00
54038;BME280;39954;48.844;9.726;2023-03-22T00:45:17;95909.66;;;4.79;100.00
54038;BME280;39954;48.844;9.726;2023-03-22T00:46:19;95909.72;;;4.78;100.00
54038;BME280;39954;48.844;9.726;2023-03-22T00:47:27;95904.56;;;4.78;100.00
54038;BME280;39954;48.844;9.726;2023-03-22T00:48:31;95904.69;;;4.75;100.00
54038;BME280;39954;48.844;9.726;2023-03-22T00:49:36;95903.13;;;4.70;100.00
54038;BME280;39954;48.844;9.726;2023-03-22T00:50:39;95904.09;;;4.68;100.00
54038;BME280;39954;48.844;9.726;2023-03-22T00:51:44;95897.22;;;4.67;100.00
54038;BME280;39954;48.844;9.726;2023-03-22T00:52:47;95901.69;;;4.62;100.00
54038;BME280;39954;48.844;9.726;2023-03-22T00:53:53;95899.31;;;4.57;100.00
54038;BME280;39954;48.844;9.726;2023-03-22T00:54:57;95898.53;;;4.55;100.00
54038;BME280;39954;48.844;9.726;2023-03-22T00:56:04;95896.84;;;4.54;100.00
54038;BME280;39954;48.844;9.726;2023-03-22T00:57:09;95890.13;;;4.50;100.00
54038;BME280;39954;48.844;9.726;2023-03-22T00:58:17;95897.06;;;4.48;100.00
54038;BME280;39954;48.844;9.726;2023-03-22T00:59:19;95897.16;;;4.45;100.00
54038;BME280;39954;48.844;9.726;2023-03-22T01:00:24;95899.09;;;4.40;100.00
54038;BME280;39954;48.844;9.726;2023-03-22T01:01:28;95898.34;;;4.36;100.00
54038;BME280;39954;48.844;9.726;2023-03-22T01:02:35;95898.50;;;4.32;100.00
54038;BME280;39954;48.844;9.726;2023-03-22T01:03:38;95899.47;;;4.29;100.00
54038;BME280;39954;48.844;9.726;2023-03-22T01:04:45;95897.84;;;4.26;100.00
54038;BME280;39954;48.844;9.726;2023-03-22T01:05:51;95899.59;;;4.24;100.00
54038;BME280;39954;48.844;9.726;2023-03-22T01:06:57;95896.31;;;4.21;100.00
54038;BME280;39954;48.844;9.726;2023-03-22T01:08:03;95899.81;;;4.18;100.00
54038;BME280;39954;48.844;9.726;2023-03-22T01:09:10;95899.94;;;4.15;100.00
54038;BME280;39954;48.844;9.726;2023-03-22T01:10:17;95898.31;;;4.13;100.00
54038;BME280;39954;48.844;9.726;2023-03-22T01:11:25;95900.88;;;4.13;100.00
54038;BME280;39954;48.844;9.726;2023-03-22T01:12:32;95904.28;;;4.13;100.00
54038;BME280;39954;48.844;9.726;2023-03-22T01:13:41;95891.44;;;4.13;100.00
54038;BME280;39954;48.844;9.726;2023-03-22T01:14:44;95898.41;;;4.10;100.00
54038;BME280;39954;48.844;9.726;2023-03-22T01:15:50;95894.22;;;4.07;100.00
54038;BME280;39954;48.844;9.726;2023-03-22T01:16:54;95898.56;;;4.05;100.00
54038;BME280;39954;48.844;9.726;2023-03-22T01:17:59;95893.53;;;4.02;100.00
54038;BME280;39954;48.844;9.726;2023-03-22T01:19:01;95896.13;;;4.00;100.00
54038;BME280;39954;48.844;9.726;2023-03-22T01:20:09;95891.84;;;4.01;100.00
54038;BME280;39954;48.844;9.726;2023-03-22T01:21:12;95890.25;;;3.97;100.00
54038;BME280;39954;48.844;9.726;2023-03-22T01:22:17;95886.03;;;3.96;100.00
54038;BME280;39954;48.844;9.726;2023-03-22T01:23:19;95888.69;;;3.93;100.00
54038;BME280;39954;48.844;9.726;2023-03-22T01:24:24;95885.34;;;3.91;100.00
54038;BME280;39954;48.844;9.726;2023-03-22T01:25:26;95888.81;;;3.90;100.00
54038;BME280;39954;48.844;9.726;2023-03-22T01:26:33;95887.22;;;3.86;100.00
54038;BME280;39954;48.844;9.726;2023-03-22T01:27:40;95885.66;;;3.81;100.00
54038;BME280;39954;48.844;9.726;2023-03-22T01:28:46;95882.38;;;3.76;100.00
54038;BME280;39954;48.844;9.726;2023-03-22T01:29:48;95880.78;;;3.72;100.00
54038;BME280;39954;48.844;9.726;2023-03-22T01:30:54;95874.94;;;3.69;100.00
54038;BME280;39954;48.844;9.726;2023-03-22T01:31:57;95877.56;;;3.67;100.00
54038;BME280;39954;48.844;9.726;2023-03-22T01:33:02;95877.75;;;3.61;100.00
54038;BME280;39954;48.844;9.726;2023-03-22T01:34:07;95878.72;;;3.58;100.00
54038;BME280;39954;48.844;9.726;2023-03-22T01:35:12;95878.78;;;3.55;100.00
54038;BME280;39954;48.844;9.726;2023-03-22T01:36:14;95879.75;;;3.53;100.00
54038;BME280;39954;48.844;9.726;2023-03-22T01:37:19;95879.81;;;3.50;100.00
54038;BME280;39954;48.844;9.726;2023-03-22T01:38:22;95879.81;;;3.50;100.00
54038;BME280;39954;48.844;9.726;2023-03-22T01:39:28;95873.84;;;3.49;100.00
54038;BME280;39954;48.844;9.726;2023-03-22T01:40:34;95879.91;;;3.47;100.00
54038;BME280;39954;48.844;9.726;2023-03-22T01:41:43;95878.97;;;3.49;100.00
54038;BME280;39954;48.844;9.726;2023-03-22T01:42:51;95878.16;;;3.49;100.00
54038;BME280;39954;48.844;9.726;2023-03-22T01:44:10;95877.34;;;3.47;100.00
54038;BME280;39954;48.844;9.726;2023-03-22T01:45:30;95876.53;;;3.46;100.00
54038;BME280;39954;48.844;9.726;2023-03-22T01:46:37;95875.69;;;3.46;100.00
54038;BME280;39954;48.844;9.726;2023-03-22T01:47:44;95874.78;;;3.47;100.00
54038;BME280;39954;48.844;9.726;2023-03-22T01:48:48;95874.75;;;3.48;100.00
54038;BME280;39954;48.844;9.726;2023-03-22T01:49:54;95861.94;;;3.47;100.00
54038;BME280;39954;48.844;9.726;2023-03-22T01:51:04;95867.97;;;3.46;100.00
54038;BME280;39954;48.844;9.726;2023-03-22T01:52:13;95868.91;;;3.43;100.00
54038;BME280;39954;48.844;9.726;2023-03-22T01:53:17;95868.06;;;3.43;100.00
54038;BME280;39954;48.844;9.726;2023-03-22T01:54:29;95865.59;;;3.40;100.00
54038;BME280;39954;48.844;9.726;2023-03-22T01:55:37;95867.38;;;3.38;100.00
54038;BME280;39954;48.844;9.726;2023-03-22T01:56:41;95861.31;;;3.40;100.00
54038;BME280;39954;48.844;9.726;2023-03-22T01:57:45;95861.34;;;3.39;100.00
54038;BME280;39954;48.844;9.726;2023-03-22T01:59:00;95859.69;;;3.38;100.00
54038;BME280;39954;48.844;9.726;2023-03-22T02:00:27;95858.94;;;3.34;100.00
54038;BME280;39954;48.844;9.726;2023-03-22T02:01:32;95862.38;;;3.33;100.00
54038;BME280;39954;48.844;9.726;2023-03-22T02:02:40;95859.78;;;3.34;100.00
54038;BME280;39954;48.844;9.726;2023-03-22T02:03:49;95861.44;;;3.35;100.00
54038;BME280;39954;48.844;9.726;2023-03-22T02:04:55;95853.81;;;3.34;100.00
54038;BME280;39954;48.844;9.726;2023-03-22T02:06:01;95857.13;;;3.36;100.00
54038;BME280;39954;48.844;9.726;2023-03-22T02:07:12;95862.28;;;3.36;100.00
54038;BME280;39954;48.844;9.726;2023-03-22T02:08:16;95864.91;;;3.34;100.00
54038;BME280;39954;48.844;9.726;2023-03-22T02:09:23;95857.25;;;3.33;100.00
54038;BME280;39954;48.844;9.726;2023-03-22T02:10:26;95856.31;;;3.35;100.00
54038;BME280;39954;48.844;9.726;2023-03-22T02:11:36;95855.47;;;3.35;100.00
54038;BME280;39954;48.844;9.726;2023-03-22T02:12:46;95851.22;;;3.34;100.00
54038;BME280;39954;48.844;9.726;2023-03-22T02:14:21;95846.13;;;3.32;100.00
54038;BME280;39954;48.844;9.726;2023-03-22T02:15:32;95847.06;;;3.30;100.00
54038;BME280;39954;48.844;9.726;2023-03-22T02:16:43;95844.56;;;3.28;100.00
54038;BME280;39954;48.844;9.726;2023-03-22T02:18:01;95843.63;;;3.31;100.00
54038;BME280;39954;48.844;9.726;2023-03-22T02:19:32;95844.47;;;3.31;100.00
54038;BME280;39954;48.844;9.726;2023-03-22T02:21:10;95841.09;;;3.29;100.00
54038;BME280;39954;48.844;9.726;2023-03-22T02:22:56;95832.56;;;3.29;100.00
54038;BME280;39954;48.844;9.726;2023-03-22T02:26:27;95830.81;;;3.29;100.00
54038;BME280;39954;48.844;9.726;2023-03-22T02:28:04;95835.25;;;3.24;100.00
54038;BME280;39954;48.844;9.726;2023-03-22T02:29:17;95838.75;;;3.22;100.00
54038;BME280;39954;48.844;9.726;2023-03-22T02:30:56;95837.94;;;3.21;100.00
54038;BME280;39954;48.844;9.726;2023-03-22T02:32:24;95832.06;;;3.18;100.00
54038;BME280;39954;48.844;9.726;2023-03-22T02:33:40;95829.63;;;3.13;100.00
54038;BME280;39954;48.844;9.726;2023-03-22T02:35:21;95835.66;;;3.12;100.00
54038;BME280;39954;48.844;9.726;2023-03-22T02:36:40;95840.84;;;3.10;100.00
54038;BME280;39954;48.844;9.726;2023-03-22T02:39:37;95840.09;;;3.07;100.00
54038;BME280;39954;48.844;9.726;2023-03-22T02:40:48;95835.88;;;3.06;100.00
54038;BME280;39954;48.844;9.726;2023-03-22T02:42:10;95831.59;;;3.05;100.00
54038;BME280;39954;48.844;9.726;2023-03-22T02:43:27;95834.13;;;3.06;100.00
54038;BME280;39954;48.844;9.726;2023-03-22T02:44:41;95828.06;;;3.09;100.00
54038;BME280;39954;48.844;9.726;2023-03-22T02:45:51;95831.44;;;3.11;100.00
54038;BME280;39954;48.844;9.726;2023-03-22T02:47:01;95829.78;;;3.08;100.00
54038;BME280;39954;48.844;9.726;2023-03-22T02:48:12;95825.53;;;3.07;100.00
54038;BME280;39954;48.844;9.726;2023-03-22T02:49:21;95822.09;;;3.08;100.00
54038;BME280;39954;48.844;9.726;2023-03-22T02:50:37;95825.50;;;3.09;100.00
54038;BME280;39954;48.844;9.726;2023-03-22T02:51:48;95829.81;;;3.07;100.00
54038;BME280;39954;48.844;9.726;2023-03-22T02:52:55;95823.03;;;3.06;100.00
54038;BME280;39954;48.844;9.726;2023-03-22T02:54:03;95823.84;;;3.06;100.00
54038;BME280;39954;48.844;9.726;2023-03-22T02:55:17;95826.56;;;3.02;100.00
54038;BME280;39954;48.844;9.726;2023-03-22T02:56:28;95825.78;;;3.00;100.00
54038;BME280;39954;48.844;9.726;2023-03-22T02:57:36;95821.53;;;2.99;100.00
54038;BME280;39954;48.844;9.726;2023-03-22T02:58:44;95825.09;;;2.95;100.00
54038;BME280;39954;48.844;9.726;2023-03-22T02:59:54;95827.69;;;2.93;100.00
54038;BME280;39954;48.844;9.726;2023-03-22T03:01:03;95820.91;;;2.90;100.00
54038;BME280;39954;48.844;9.726;2023-03-22T03:02:08;95820.91;;;2.90;100.00
54038;BME280;39954;48.844;9.726;2023-03-22T03:03:16;95826.22;;;2.86;100.00
54038;BME280;39954;48.844;9.726;2023-03-22T03:04:24;95827.06;;;2.86;100.00
54038;BME280;39954;48.844;9.726;2023-03-22T03:05:32;95827.09;;;2.85;100.00
54038;BME280;39954;48.844;9.726;2023-03-22T03:06:39;95828.09;;;2.79;100.00
54038;BME280;39954;48.844;9.726;2023-03-22T03:07:49;95830.78;;;2.76;100.00
54038;BME280;39954;48.844;9.726;2023-03-22T03:08:54;95824.06;;;2.72;100.00
54038;BME280;39954;48.844;9.726;2023-03-22T03:10:04;95829.28;;;2.69;100.00
54038;BME280;39954;48.844;9.726;2023-03-22T03:11:32;95824.16;;;2.69;100.00
54038;BME280;39954;48.844;9.726;2023-03-22T03:12:47;95826.72;;;2.69;100.00
54038;BME280;39954;48.844;9.726;2023-03-22T03:13:53;95826.66;;;2.71;100.00
54038;BME280;39954;48.844;9.726;2023-03-22T03:15:01;95825.03;;;2.68;100.00
54038;BME280;39954;48.844;9.726;2023-03-22T03:16:05;95826.78;;;2.66;100.00
54038;BME280;39954;48.844;9.726;2023-03-22T03:17:20;95828.59;;;2.64;100.00
54038;BME280;39954;48.844;9.726;2023-03-22T03:18:31;95831.25;;;2.61;100.00
54038;BME280;39954;48.844;9.726;2023-03-22T03:19:47;95830.53;;;2.56;100.00
54038;BME280;39954;48.844;9.726;2023-03-22T03:20:59;95833.97;;;2.55;100.00
54038;BME280;39954;48.844;9.726;2023-03-22T03:22:21;95830.72;;;2.50;100.00
54038;BME280;39954;48.844;9.726;2023-03-22T03:23:38;95833.31;;;2.48;100.00
54038;BME280;39954;48.844;9.726;2023-03-22T03:24:51;95824.78;;;2.47;100.00
54038;BME280;39954;48.844;9.726;2023-03-22T03:26:01;95832.56;;;2.44;100.00
54038;BME280;39954;48.844;9.726;2023-03-22T03:27:15;95836.00;;;2.43;100.00
54038;BME280;39954;48.844;9.726;2023-03-22T03:28:24;95828.31;;;2.43;100.00
54038;BME280;39954;48.844;9.726;2023-03-22T03:29:41;95823.19;;;2.43;100.00
54038;BME280;39954;48.844;9.726;2023-03-22T03:30:52;95833.44;;;2.43;100.00
54038;BME280;39954;48.844;9.726;2023-03-22T03:32:05;95826.63;;;2.42;100.00
54038;BME280;39954;48.844;9.726;2023-03-22T03:33:15;95829.13;;;2.45;100.00
54038;BME280;39954;48.844;9.726;2023-03-22T03:34:22;95828.28;;;2.45;100.00
54038;BME280;39954;48.844;9.726;2023-03-22T03:35:31;95829.91;;;2.47;100.00
54038;BME280;39954;48.844;9.726;2023-03-22T03:36:35;95826.38;;;2.52;100.00
54038;BME280;39954;48.844;9.726;2023-03-22T03:37:46;95828.06;;;2.53;100.00
54038;BME280;39954;48.844;9.726;2023-03-22T03:38:51;95833.19;;;2.53;100.00
54038;BME280;39954;48.844;9.726;2023-03-22T03:40:02;95834.03;;;2.53;100.00
54038;BME280;39954;48.844;9.726;2023-03-22T03:41:08;95834.06;;;2.52;100.00
54038;BME280;39954;48.844;9.726;2023-03-22T03:42:17;95832.34;;;2.52;100.00
54038;BME280;39954;48.844;9.726;2023-03-22T03:43:21;95835.03;;;2.47;100.00
54038;BME280;39954;48.844;9.726;2023-03-22T03:44:28;95828.31;;;2.43;100.00
54038;BME280;39954;48.844;9.726;2023-03-22T03:45:32;95830.03;;;2.43;100.00
54038;BME280;39954;48.844;9.726;2023-03-22T03:46:38;95824.19;;;2.38;100.00
54038;BME280;39954;48.844;9.726;2023-03-22T03:47:42;95833.63;;;2.37;100.00
54038;BME280;39954;48.844;9.726;2023-03-22T03:48:50;95834.53;;;2.35;100.00
54038;BME280;39954;48.844;9.726;2023-03-22T03:49:53;95836.28;;;2.34;100.00
54038;BME280;39954;48.844;9.726;2023-03-22T03:51:00;95837.16;;;2.33;100.00
54038;BME280;39954;48.844;9.726;2023-03-22T03:52:04;95835.41;;;2.35;100.00
54038;BME280;39954;48.844;9.726;2023-03-22T03:53:12;95844.72;;;2.38;100.00
54038;BME280;39954;48.844;9.726;2023-03-22T03:54:16;95839.59;;;2.38;100.00
54038;BME280;39954;48.844;9.726;2023-03-22T03:55:22;95839.56;;;2.39;100.00
54038;BME280;39954;48.844;9.726;2023-03-22T03:56:24;95837.97;;;2.35;100.00
54038;BME280;39954;48.844;9.726;2023-03-22T03:57:32;95832.88;;;2.34;100.00
54038;BME280;39954;48.844;9.726;2023-03-22T03:58:34;95842.31;;;2.32;100.00
54038;BME280;39954;48.844;9.726;2023-03-22T03:59:39;95838.94;;;2.31;100.00
54038;BME280;39954;48.844;9.726;2023-03-22T04:00:45;95842.38;;;2.30;100.00
54038;BME280;39954;48.844;9.726;2023-03-22T04:01:57;95839.81;;;2.30;100.00
54038;BME280;39954;48.844;9.726;2023-03-22T04:03:02;95841.59;;;2.28;100.00
54038;BME280;39954;48.844;9.726;2023-03-22T04:04:07;95838.22;;;2.26;100.00
54038;BME280;39954;48.844;9.726;2023-03-22T04:05:12;95835.66;;;2.26;100.00
54038;BME280;39954;48.844;9.726;2023-03-22T04:06:18;95842.47;;;2.27;100.00
54038;BME280;39954;48.844;9.726;2023-03-22T04:07:21;95837.34;;;2.27;100.00
54038;BME280;39954;48.844;9.726;2023-03-22T04:08:25;95845.06;;;2.26;100.00
54038;BME280;39954;48.844;9.726;2023-03-22T04:09:31;95830.63;;;2.23;100.00
54038;BME280;39954;48.844;9.726;2023-03-22T04:10:36;95839.09;;;2.25;100.00
54038;BME280;39954;48.844;9.726;2023-03-22T04:11:39;95841.59;;;2.28;100.00
54038;BME280;39954;48.844;9.726;2023-03-22T04:12:47;95841.59;;;2.28;100.00
54038;BME280;39954;48.844;9.726;2023-03-22T04:13:51;95842.38;;;2.30;100.00
54038;BME280;39954;48.844;9.726;2023-03-22T04:14:54;95845.88;;;2.28;100.00
54038;BME280;39954;48.844;9.726;2023-03-22T04:16:00;95839.09;;;2.25;100.00
54038;BME280;39954;48.844;9.726;2023-03-22T04:17:03;95836.56;;;2.23;100.00
54038;BME280;39954;48.844;9.726;2023-03-22T04:18:09;95838.38;;;2.21;100.00
54038;BME280;39954;48.844;9.726;2023-03-22T04:19:13;95837.50;;;2.21;100.00
54038;BME280;39954;48.844;9.726;2023-03-22T04:20:19;95836.75;;;2.17;100.00
54038;BME280;39954;48.844;9.726;2023-03-22T04:21:22;95839.28;;;2.19;100.00
54038;BME280;39954;48.844;9.726;2023-03-22T04:22:28;95839.28;;;2.19;100.00
54038;BME280;39954;48.844;9.726;2023-03-22T04:23:30;95840.22;;;2.15;100.00
54038;BME280;39954;48.844;9.726;2023-03-22T04:24:36;95836.00;;;2.14;100.00
54038;BME280;39954;48.844;9.726;2023-03-22T04:25:40;95836.00;;;2.14;100.00
54038;BME280;39954;48.844;9.726;2023-03-22T04:26:51;95836.81;;;2.16;100.00
54038;BME280;39954;48.844;9.726;2023-03-22T04:27:56;95838.56;;;2.14;100.00
54038;BME280;39954;48.844;9.726;2023-03-22T04:29:01;95840.13;;;2.19;100.00
54038;BME280;39954;48.844;9.726;2023-03-22T04:30:06;95839.19;;;2.22;100.00
54038;BME280;39954;48.844;9.726;2023-03-22T04:31:11;95837.34;;;2.27;100.00
54038;BME280;39954;48.844;9.726;2023-03-22T04:32:14;95834.78;;;2.27;100.00
54038;BME280;39954;48.844;9.726;2023-03-22T04:33:20;95836.38;;;2.31;100.00
54038;BME280;39954;48.844;9.726;2023-03-22T04:34:24;95836.28;;;2.34;100.00
54038;BME280;39954;48.844;9.726;2023-03-22T04:35:29;95839.72;;;2.33;100.00
54038;BME280;39954;48.844;9.726;2023-03-22T04:36:33;95838.66;;;2.40;100.00
54038;BME280;39954;48.844;9.726;2023-03-22T04:37:40;95839.47;;;2.42;100.00
54038;BME280;39954;48.844;9.726;2023-03-22T04:38:46;95837.63;;;2.46;100.00
54038;BME280;39954;48.844;9.726;2023-03-22T04:39:49;95840.97;;;2.50;100.00
54038;BME280;39954;48.844;9.726;2023-03-22T04:40:54;95834.78;;;2.57;100.00
54038;BME280;39954;48.844;9.726;2023-03-22T04:41:57;95830.47;;;2.57;100.00
54038;BME280;39954;48.844;9.726;2023-03-22T04:43:05;95829.53;;;2.60;100.00
54038;BME280;39954;48.844;9.726;2023-03-22T04:44:12;95833.53;;;2.70;100.00
54038;BME280;39954;48.844;9.726;2023-03-22T04:45:17;95830.03;;;2.73;100.00
54038;BME280;39954;48.844;9.726;2023-03-22T04:46:20;95827.41;;;2.74;100.00
54038;BME280;39954;48.844;9.726;2023-03-22T04:47:26;95835.78;;;2.81;100.00
54038;BME280;39954;48.844;9.726;2023-03-22T04:48:28;95827.25;;;2.80;100.00
54038;BME280;39954;48.844;9.726;2023-03-22T04:49:34;95832.44;;;2.77;100.00
54038;BME280;39954;48.844;9.726;2023-03-22T04:50:37;95836.81;;;2.75;100.00
54038;BME280;39954;48.844;9.726;2023-03-22T04:51:43;95832.59;;;2.73;100.00
54038;BME280;39954;48.844;9.726;2023-03-22T04:52:49;95834.34;;;2.71;100.00
54038;BME280;39954;48.844;9.726;2023-03-22T04:53:55;95834.31;;;2.72;100.00
54038;BME280;39954;48.844;9.726;2023-03-22T04:54:58;95833.56;;;2.68;100.00
54038;BME280;39954;48.844;9.726;2023-03-22T04:56:04;95828.50;;;2.67;100.00
54038;BME280;39954;48.844;9.726;2023-03-22T04:57:08;95836.84;;;2.74;100.00
54038;BME280;39954;48.844;9.726;2023-03-22T04:58:16;95829.63;;;2.86;100.00
54038;BME280;39954;48.844;9.726;2023-03-22T04:59:18;95825.91;;;2.95;100.00
54038;BME280;39954;48.844;9.726;2023-03-22T05:00:23;95834.53;;;2.94;100.00
54038;BME280;39954;48.844;9.726;2023-03-22T05:01:25;95836.06;;;3.00;100.00
54038;BME280;39954;48.844;9.726;2023-03-22T05:02:30;95833.66;;;2.94;100.00
54038;BME280;39954;48.844;9.726;2023-03-22T05:03:33;95822.34;;;2.99;100.00
54038;BME280;39954;48.844;9.726;2023-03-22T05:04:37;95830.16;;;2.96;100.00
54038;BME280;39954;48.844;9.726;2023-03-22T05:05:39;95830.84;;;3.01;100.00
54038;BME280;39954;48.844;9.726;2023-03-22T05:06:53;95826.66;;;2.99;100.00
54038;BME280;39954;48.844;9.726;2023-03-22T05:07:55;95829.22;;;2.99;100.00
54038;BME280;39954;48.844;9.726;2023-03-22T05:09:00;95828.53;;;2.94;100.00
54038;BME280;39954;48.844;9.726;2023-03-22T05:10:03;95836.31;;;2.90;100.00
54038;BME280;39954;48.844;9.726;2023-03-22T05:11:09;95835.63;;;2.85;100.00
54038;BME280;39954;48.844;9.726;2023-03-22T05:12:12;95834.56;;;2.92;100.00
54038;BME280;39954;48.844;9.726;2023-03-22T05:13:20;95832.03;;;2.91;100.00
54038;BME280;39954;48.844;9.726;2023-03-22T05:14:23;95826.16;;;2.87;100.00
54038;BME280;39954;48.844;9.726;2023-03-22T05:15:28;95830.44;;;2.87;100.00
54038;BME280;39954;48.844;9.726;2023-03-22T05:16:30;95827.81;;;2.88;100.00
54038;BME280;39954;48.844;9.726;2023-03-22T05:17:34;95832.81;;;2.93;100.00
54038;BME280;39954;48.844;9.726;2023-03-22T05:18:37;95827.59;;;2.96;100.00
54038;BME280;39954;48.844;9.726;2023-03-22T05:19:43;95824.66;;;3.08;100.00
54038;BME280;39954;48.844;9.726;2023-03-22T05:20:46;95826.38;;;3.08;100.00
54038;BME280;39954;48.844;9.726;2023-03-22T05:21:51;95819.66;;;3.04;100.00
54038;BME280;39954;48.844;9.726;2023-03-22T05:22:59;95820.59;;;3.01;100.00
54038;BME280;39954;48.844;9.726;2023-03-22T05:24:05;95828.34;;;3.00;100.00
54038;BME280;39954;48.844;9.726;2023-03-22T05:25:08;95827.91;;;3.13;100.00
54038;BME280;39954;48.844;9.726;2023-03-22T05:26:14;95818.50;;;3.14;100.00
54038;BME280;39954;48.844;9.726;2023-03-22T05:27:17;95814.22;;;3.13;100.00
54038;BME280;39954;48.844;9.726;2023-03-22T05:28:35;95815.03;;;3.15;100.00
54038;BME280;39954;48.844;9.726;2023-03-22T05:29:38;95817.69;;;3.12;100.00
54038;BME280;39954;48.844;9.726;2023-03-22T05:30:46;95808.88;;;3.19;100.00
54038;BME280;39954;48.844;9.726;2023-03-22T05:31:48;95815.72;;;3.20;100.00
54038;BME280;39954;48.844;9.726;2023-03-22T05:32:56;95814.13;;;3.16;100.00
54038;BME280;39954;48.844;9.726;2023-03-22T05:34:09;95808.25;;;3.12;100.00
54038;BME280;39954;48.844;9.726;2023-03-22T05:35:30;95816.88;;;3.10;100.00
54038;BME280;39954;48.844;9.726;2023-03-22T05:36:32;95819.25;;;3.16;100.00
54038;BME280;39954;48.844;9.726;2023-03-22T05:37:37;95811.38;;;3.22;100.00
54038;BME280;39954;48.844;9.726;2023-03-22T05:38:39;95814.91;;;3.18;100.00
54038;BME280;39954;48.844;9.726;2023-03-22T05:39:45;95822.63;;;3.18;100.00
54038;BME280;39954;48.844;9.726;2023-03-22T05:41:57;95809.88;;;3.15;100.00
54038;BME280;39954;48.844;9.726;2023-03-22T05:43:12;95804.75;;;3.15;100.00
54038;BME280;39954;48.844;9.726;2023-03-22T05:44:42;95804.75;;;3.15;100.00
54038;BME280;39954;48.844;9.726;2023-03-22T05:47:43;95806.41;;;3.43;100.00
54038;BME280;39954;48.844;9.726;2023-03-22T05:49:05;95802.13;;;3.43;100.00
54038;BME280;39954;48.844;9.726;2023-03-22T05:50:15;95802.56;;;3.56;100.00
54038;BME280;39954;48.844;9.726;2023-03-22T05:51:19;95802.16;;;3.67;100.00
54038;BME280;39954;48.844;9.726;2023-03-22T05:52:43;95803.69;;;3.72;100.00
54038;BME280;39954;48.844;9.726;2023-03-22T05:53:46;95800.88;;;3.80;100.00
54038;BME280;39954;48.844;9.726;2023-03-22T05:54:52;95806.53;;;3.90;100.00
54038;BME280;39954;48.844;9.726;2023-03-22T05:56:07;95799.78;;;3.87;100.00
54038;BME280;39954;48.844;9.726;2023-03-22T05:57:37;95795.09;;;3.98;100.00
54038;BME280;39954;48.844;9.726;2023-03-22T05:58:42;95799.41;;;3.98;100.00
54038;BME280;39954;48.844;9.726;2023-03-22T05:59:59;95796.81;;;3.98;100.00
54038;BME280;39954;48.844;9.726;2023-03-22T06:01:19;95794.03;;;4.04;100.00
54038;BME280;39954;48.844;9.726;2023-03-22T06:02:27;95805.06;;;4.06;100.00
54038;BME280;39954;48.844;9.726;2023-03-22T06:03:29;95790.50;;;4.07;100.00
54038;BME280;39954;48.844;9.726;2023-03-22T06:04:34;95794.53;;;4.14;100.00
54038;BME280;39954;48.844;9.726;2023-03-22T06:05:36;95796.94;;;4.18;100.00
54038;BME280;39954;48.844;9.726;2023-03-22T06:06:41;95794.28;;;4.20;100.00